Terminal Aerodrome Forecast
Issued by NWS

Home | Current Version | Previous Version | Text Only | Print | Product List | Glossary On
Versions: 1 2 3 4 5 6 7 8 9 10 11 12 13 14 15 16 17 18 19 20 21 22 23 24 25 26 27 28 29 30 31
000
FTUS42 KJAX 050520
TAFCRG
TAF
KCRG 050520Z 0506/0606 22002KT 6SM BR SCT250
      TEMPO 0508/0512 5SM BR FEW001
     FM051400 24006KT P6SM SCT035
     FM051800 23007KT P6SM VCTS BKN040CB PROB30 0520/0523 5SM -TSRA
      BKN040CB
     FM060100 23004KT P6SM SCT100 BKN200=

USA.gov is the U.S. government's official web portal to all federal, state and local government web resources and services.